createdAt,value
2022-12-20T00:00:12.388Z,96951.97
2022-12-20T00:02:45.390Z,96942.69
2022-12-20T00:05:18.375Z,96942.94
2022-12-20T00:07:51.217Z,96936.28
2022-12-20T00:10:25.426Z,96934.44
2022-12-20T00:12:58.201Z,96931.78
2022-12-20T00:15:31.514Z,96928.06
2022-12-20T00:18:05.527Z,96930.97
2022-12-20T00:20:38.497Z,96923.56
2022-12-20T00:23:11.510Z,96919.81
2022-12-20T00:25:45.786Z,96917.69
2022-12-20T00:28:18.942Z,96924.28
2022-12-20T00:30:54.926Z,96929.84
2022-12-20T00:33:28.133Z,96923.75
2022-12-20T00:36:01.383Z,96918.69
2022-12-20T00:38:35.045Z,96924.22
2022-12-20T00:41:11.273Z,96924.47
2022-12-20T00:43:44.189Z,96919.19
2022-12-20T00:46:18.972Z,96921.28
2022-12-20T00:48:52.284Z,96917.31
2022-12-20T00:51:27.229Z,96914.06
2022-12-20T00:54:00.031Z,96901.88
2022-12-20T00:56:34.303Z,96907.72
2022-12-20T00:59:07.481Z,96910.09
2022-12-20T01:01:40.701Z,96902.41
2022-12-20T01:04:13.618Z,96899.50
2022-12-20T01:06:46.464Z,96900.56
2022-12-20T01:09:19.416Z,96903.19
2022-12-20T01:11:53.920Z,96897.91
2022-12-20T01:14:26.845Z,96895.03
2022-12-20T01:17:00.910Z,96888.16
2022-12-20T01:19:33.937Z,96887.09
2022-12-20T01:22:06.785Z,96895.63
2022-12-20T01:24:39.697Z,96910.97
2022-12-20T01:27:13.984Z,96907.00
2022-12-20T01:29:46.904Z,96904.13
2022-12-20T01:32:19.721Z,96905.75
2022-12-20T01:34:52.794Z,96900.50
2022-12-20T01:37:25.762Z,96902.38
2022-12-20T01:39:58.557Z,96915.09
2022-12-20T01:42:33.022Z,96910.63
2022-12-20T01:45:10.416Z,96919.91
2022-12-20T01:47:43.251Z,96909.38
2022-12-20T01:50:16.077Z,96900.63
2022-12-20T01:52:49.535Z,96903.06
2022-12-20T01:55:26.645Z,96888.22
2022-12-20T01:58:03.150Z,96887.97
2022-12-20T02:00:36.671Z,96885.09
2022-12-20T02:03:13.752Z,96877.69
2022-12-20T02:05:47.827Z,96880.63
2022-12-20T02:08:21.738Z,96871.88
2022-12-20T02:11:10.902Z,96874.53
2022-12-20T02:13:50.428Z,96877.97
2022-12-20T02:16:27.442Z,96882.19
2022-12-20T02:19:06.695Z,96881.94
2022-12-20T02:21:43.948Z,96869.22
2022-12-20T02:24:58.715Z,96871.31
2022-12-20T02:27:57.646Z,96866.81
2022-12-20T02:30:36.276Z,96854.66
2022-12-20T02:33:12.624Z,96862.59
2022-12-20T02:35:45.456Z,96866.06
2022-12-20T02:38:30.585Z,96866.56
2022-12-20T02:41:08.223Z,96861.28
2022-12-20T02:44:02.093Z,96856.84
2022-12-20T02:46:38.172Z,96849.44
2022-12-20T02:49:15.035Z,96851.31
2022-12-20T02:51:51.748Z,96857.94
2022-12-20T02:54:25.805Z,96843.69
2022-12-20T02:57:03.668Z,96851.91
2022-12-20T02:59:42.760Z,96843.44
2022-12-20T03:02:17.384Z,96841.59
2022-12-20T03:04:51.796Z,96842.13
2022-12-20T03:07:24.682Z,96841.31
2022-12-20T03:09:57.567Z,96832.59
2022-12-20T03:12:30.442Z,96836.34
2022-12-20T03:15:03.300Z,96840.84
2022-12-20T03:17:37.636Z,96837.88
2022-12-20T03:20:12.314Z,96847.19
2022-12-20T03:22:45.204Z,96846.38
2022-12-20T03:25:18.423Z,96834.22
2022-12-20T03:27:51.514Z,96828.13
2022-12-20T03:30:24.526Z,96838.47
2022-12-20T03:32:59.667Z,96833.16
2022-12-20T03:35:32.677Z,96821.78
2022-12-20T03:38:05.612Z,96810.72
2022-12-20T03:40:38.517Z,96818.41
2022-12-20T03:43:11.353Z,96810.22
2022-12-20T03:45:44.148Z,96810.75
2022-12-20T03:48:18.467Z,96799.66
2022-12-20T03:50:51.365Z,96794.41
2022-12-20T03:53:24.190Z,96804.47
2022-12-20T03:55:57.145Z,96804.19
2022-12-20T03:58:30.034Z,96804.75
2022-12-20T04:01:03.107Z,96811.38
2022-12-20T04:03:37.727Z,96819.56
2022-12-20T04:06:10.555Z,96827.28
2022-12-20T04:08:43.582Z,96810.34
2022-12-20T04:11:19.553Z,96809.03
2022-12-20T04:13:54.552Z,96813.03
2022-12-20T04:16:29.434Z,96807.22
2022-12-20T04:19:04.108Z,96802.19
2022-12-20T04:21:37.408Z,96816.72
2022-12-20T04:24:10.586Z,96809.09
2022-12-20T04:26:43.516Z,96800.91
2022-12-20T04:29:16.588Z,96815.19
2022-12-20T04:31:49.529Z,96799.84
2022-12-20T04:34:23.806Z,96813.06
2022-12-20T04:36:56.784Z,96821.00
2022-12-20T04:39:29.947Z,96812.81
2022-12-20T04:42:02.826Z,96823.91
2022-12-20T04:44:35.647Z,96805.38
2022-12-20T04:47:10.235Z,96814.88
2022-12-20T04:49:44.504Z,96815.63
2022-12-20T04:52:34.766Z,96805.03
2022-12-20T04:55:08.029Z,96809.25
2022-12-20T04:57:40.809Z,96798.63
2022-12-20T05:00:15.395Z,96802.06
2022-12-20T05:02:48.541Z,96801.25
2022-12-20T05:05:22.956Z,96806.50
2022-12-20T05:07:56.457Z,96799.09
2022-12-20T05:10:29.455Z,96801.47
2022-12-20T05:13:08.811Z,96794.31
2022-12-20T05:15:43.340Z,96804.91
2022-12-20T05:18:16.282Z,96800.13
2022-12-20T05:21:10.785Z,96803.84
2022-12-20T05:24:00.833Z,96788.53
2022-12-20T05:26:37.088Z,96788.81
2022-12-20T05:29:10.022Z,96792.78
2022-12-20T05:31:42.855Z,96786.19
2022-12-20T05:34:15.909Z,96785.94
2022-12-20T05:36:50.404Z,96784.09
2022-12-20T05:39:23.190Z,96781.97
2022-12-20T05:41:56.145Z,96778.03
2022-12-20T05:44:28.969Z,96784.63
2022-12-20T05:47:01.995Z,96770.13
2022-12-20T05:49:34.959Z,96766.69
2022-12-20T05:52:09.245Z,96763.25
2022-12-20T05:54:42.054Z,96759.78
2022-12-20T05:57:16.268Z,96761.38
2022-12-20T05:59:49.433Z,96753.72
2022-12-20T06:02:22.646Z,96755.31
2022-12-20T06:04:55.729Z,96754.50
2022-12-20T06:07:30.080Z,96755.53
2022-12-20T06:10:03.019Z,96758.44
2022-12-20T06:12:36.105Z,96752.09
2022-12-20T06:15:10.855Z,96766.63
2022-12-20T06:17:43.776Z,96757.13
2022-12-20T06:20:16.745Z,96761.34
2022-12-20T06:22:51.027Z,96763.19
2022-12-20T06:25:23.957Z,96759.75
2022-12-20T06:27:57.633Z,96759.22
2022-12-20T06:30:33.970Z,96750.81
2022-12-20T06:33:07.439Z,96752.66
2022-12-20T06:35:40.212Z,96747.91
2022-12-20T06:38:14.519Z,96749.22
2022-12-20T06:40:47.362Z,96746.34
2022-12-20T06:43:20.227Z,96741.59
2022-12-20T06:45:53.360Z,96761.72
2022-12-20T06:48:26.270Z,96747.47
2022-12-20T06:50:59.159Z,96756.97
2022-12-20T06:53:33.864Z,96749.88
2022-12-20T06:56:07.534Z,96761.00
2022-12-20T06:58:40.524Z,96757.06
2022-12-20T07:01:13.432Z,96754.69
2022-12-20T07:03:46.640Z,96754.69
2022-12-20T07:06:19.498Z,96752.28
2022-12-20T07:08:53.742Z,96754.69
2022-12-20T07:11:26.715Z,96744.63
2022-12-20T07:14:00.115Z,96753.06
2022-12-20T07:16:33.272Z,96746.19
2022-12-20T07:19:06.277Z,96731.88
2022-12-20T07:21:39.269Z,96732.34
2022-12-20T07:24:13.500Z,96736.28
2022-12-20T07:26:46.624Z,96733.34
2022-12-20T07:29:19.683Z,96734.63
2022-12-20T07:31:53.054Z,96733.25
2022-12-20T07:34:26.081Z,96734.53
2022-12-20T07:36:58.971Z,96740.03
2022-12-20T07:39:33.489Z,96736.00
2022-12-20T07:42:06.526Z,96743.91
2022-12-20T07:44:39.491Z,96749.16
2022-12-20T07:47:12.321Z,96745.19
2022-12-20T07:49:45.306Z,96749.63
2022-12-20T07:52:20.982Z,96754.59
2022-12-20T07:54:58.469Z,96751.94
2022-12-20T07:57:36.745Z,96756.91
2022-12-20T08:00:11.772Z,96753.44
2022-12-20T08:02:50.125Z,96751.78
2022-12-20T08:05:24.402Z,96752.78
2022-12-20T08:08:00.241Z,96742.63
2022-12-20T08:10:34.775Z,96755.28
2022-12-20T08:13:08.069Z,96760.75
2022-12-20T08:15:41.122Z,96751.72
2022-12-20T08:18:14.259Z,96751.69
2022-12-20T08:20:47.146Z,96743.09
2022-12-20T08:23:20.378Z,96739.03
2022-12-20T08:25:54.592Z,96728.88
2022-12-20T08:28:27.823Z,96722.47
2022-12-20T08:31:04.083Z,96723.69
2022-12-20T08:33:38.389Z,96717.53
2022-12-20T08:36:13.956Z,96700.50
2022-12-20T08:38:46.865Z,96711.81
2022-12-20T08:41:21.117Z,96718.63
2022-12-20T08:43:54.161Z,96711.97
2022-12-20T08:46:27.040Z,96703.94
2022-12-20T08:48:59.943Z,96706.53
2022-12-20T08:51:33.183Z,96710.19
2022-12-20T08:54:06.209Z,96715.44
2022-12-20T08:56:40.442Z,96706.31
2022-12-20T08:59:13.495Z,96714.19
2022-12-20T09:01:46.884Z,96716.78
2022-12-20T09:04:19.884Z,96722.78
2022-12-20T09:06:52.811Z,96724.00
2022-12-20T09:09:25.653Z,96728.97
2022-12-20T09:11:59.914Z,96734.41
2022-12-20T09:14:32.777Z,96726.06
2022-12-20T09:17:06.403Z,96734.44
2022-12-20T09:19:39.278Z,96737.00
2022-12-20T09:22:12.247Z,96737.13
2022-12-20T09:24:45.420Z,96737.06
2022-12-20T09:27:20.091Z,96737.97
2022-12-20T09:29:52.916Z,96741.34
2022-12-20T09:32:25.740Z,96738.00
2022-12-20T09:34:58.836Z,96728.09
2022-12-20T09:37:32.332Z,96732.50
2022-12-20T09:40:06.071Z,96739.81
2022-12-20T09:42:40.361Z,96729.84
2022-12-20T09:45:27.174Z,96724.16
2022-12-20T09:48:00.020Z,96727.78
2022-12-20T09:50:45.086Z,96724.72
2022-12-20T09:53:28.993Z,96718.53
2022-12-20T09:56:06.222Z,96703.88
2022-12-20T09:58:56.855Z,96692.03
2022-12-20T10:01:38.229Z,96688.00
2022-12-20T10:04:21.311Z,96691.06
2022-12-20T10:07:14.336Z,96692.53
2022-12-20T10:10:06.872Z,96684.63
2022-12-20T10:12:48.333Z,96685.63
2022-12-20T10:15:28.723Z,96686.00
2022-12-20T10:18:20.710Z,96675.53
2022-12-20T10:20:58.443Z,96671.19
2022-12-20T10:23:38.578Z,96660.41
2022-12-20T10:26:14.205Z,96660.13
2022-12-20T10:28:52.221Z,96657.16
2022-12-20T10:31:28.696Z,96653.13
2022-12-20T10:34:01.504Z,96643.25
2022-12-20T10:36:35.994Z,96637.59
2022-12-20T10:39:11.357Z,96625.88
2022-12-20T10:41:52.245Z,96619.16
2022-12-20T10:44:28.299Z,96622.91
2022-12-20T10:47:02.882Z,96616.97
2022-12-20T10:49:38.053Z,96608.06
2022-12-20T10:52:14.492Z,96598.09
2022-12-20T10:54:48.417Z,96595.78
2022-12-20T10:57:24.086Z,96592.09
2022-12-20T11:00:00.266Z,96578.97
2022-12-20T11:02:41.542Z,96568.84
2022-12-20T11:05:22.637Z,96571.22
2022-12-20T11:10:50.271Z,96560.31
2022-12-20T11:13:25.873Z,96550.78
2022-12-20T11:16:01.593Z,96549.53
2022-12-20T11:18:45.343Z,96568.50
2022-12-20T11:21:28.730Z,96579.69
2022-12-20T11:24:09.007Z,96578.91
2022-12-20T11:26:59.273Z,96577.34
2022-12-20T11:29:56.058Z,96551.78
2022-12-20T11:32:48.306Z,96540.19
2022-12-20T11:35:31.407Z,96530.00
2022-12-20T11:38:14.383Z,96527.47
2022-12-20T11:40:52.965Z,96519.94
2022-12-20T11:44:00.999Z,96522.78
2022-12-20T11:46:45.712Z,96517.75
2022-12-20T11:49:38.708Z,96510.34
2022-12-20T11:52:20.908Z,96518.22
2022-12-20T11:55:03.393Z,96532.31
2022-12-20T11:58:09.523Z,96530.59
2022-12-20T12:00:37.757Z,96515.53
2022-12-20T12:03:17.637Z,96504.50
2022-12-20T12:05:55.995Z,96504.66
2022-12-20T12:08:39.856Z,96500.88
2022-12-20T12:12:04.577Z,96497.91
2022-12-20T12:14:19.244Z,96499.47
2022-12-20T12:16:55.338Z,96498.34
2022-12-20T12:19:31.907Z,96497.25
2022-12-20T12:22:12.239Z,96485.16
2022-12-20T12:24:50.331Z,96480.28
2022-12-20T12:27:25.858Z,96477.13
2022-12-20T12:30:00.305Z,96489.41
2022-12-20T12:32:39.250Z,96495.38
2022-12-20T12:35:53.856Z,96482.19
2022-12-20T12:39:06.282Z,96487.88
2022-12-20T12:42:19.626Z,96471.69
2022-12-20T12:44:56.482Z,96476.44
2022-12-20T12:47:36.501Z,96454.03
2022-12-20T12:50:18.916Z,96451.47
2022-12-20T12:52:55.496Z,96439.41
2022-12-20T12:55:43.519Z,96440.38
2022-12-20T12:58:33.939Z,96445.03
2022-12-20T13:01:10.739Z,96459.00
2022-12-20T13:04:10.395Z,96467.00
2022-12-20T13:07:05.861Z,96467.28
2022-12-20T13:09:42.563Z,96460.03
2022-12-20T13:12:48.850Z,96452.50
2022-12-20T13:15:52.794Z,96453.28
2022-12-20T13:18:27.511Z,96449.94
2022-12-20T13:21:30.535Z,96450.59
2022-12-20T13:24:42.543Z,96450.09
2022-12-20T13:27:33.589Z,96443.00
2022-12-20T13:30:30.629Z,96441.44
2022-12-20T13:33:39.235Z,96439.41
2022-12-20T13:36:33.902Z,96434.09
2022-12-20T13:39:34.337Z,96439.72
2022-12-20T13:42:23.857Z,96444.56
2022-12-20T13:44:57.183Z,96441.75
2022-12-20T13:47:36.024Z,96449.41
2022-12-20T13:50:31.095Z,96447.66
2022-12-20T13:53:05.705Z,96445.63
2022-12-20T13:55:39.997Z,96444.66
2022-12-20T13:58:17.153Z,96437.78
2022-12-20T14:00:51.417Z,96435.41
2022-12-20T14:03:27.750Z,96438.06
2022-12-20T14:06:04.283Z,96423.69
2022-12-20T14:08:40.206Z,96424.16
2022-12-20T14:11:14.673Z,96420.88
2022-12-20T14:13:53.994Z,96416.50
2022-12-20T14:16:28.733Z,96407.88
2022-12-20T14:19:03.986Z,96410.13
2022-12-20T14:21:41.524Z,96409.66
2022-12-20T14:24:18.473Z,96400.44
2022-12-20T14:26:54.214Z,96408.75
2022-12-20T14:29:32.697Z,96411.75
2022-12-20T14:32:06.586Z,96406.75
2022-12-20T14:34:44.436Z,96404.72
2022-12-20T14:37:30.989Z,96404.72
2022-12-20T14:40:17.665Z,96406.78
2022-12-20T14:42:50.640Z,96400.34
2022-12-20T14:45:26.867Z,96403.16
2022-12-20T14:48:03.558Z,96411.34
2022-12-20T14:50:37.953Z,96410.84
2022-12-20T14:53:21.248Z,96408.66
2022-12-20T14:55:54.110Z,96410.84
2022-12-20T14:58:30.059Z,96412.72
2022-12-20T15:01:05.439Z,96409.75
2022-12-20T15:03:50.885Z,96396.59
2022-12-20T15:06:35.593Z,96403.81
2022-12-20T15:09:09.916Z,96403.03
2022-12-20T15:11:46.707Z,96397.53
2022-12-20T15:14:35.120Z,96392.19
2022-12-20T15:17:13.336Z,96395.47
2022-12-20T15:19:46.129Z,96400.50
2022-12-20T15:22:21.590Z,96390.47
2022-12-20T15:24:55.782Z,96386.84
2022-12-20T15:27:28.602Z,96390.78
2022-12-20T15:30:01.345Z,96404.41
2022-12-20T15:32:34.273Z,96392.03
2022-12-20T15:35:13.552Z,96391.06
2022-12-20T15:37:46.428Z,96392.00
2022-12-20T15:40:20.716Z,96391.81
2022-12-20T15:42:53.555Z,96381.94
2022-12-20T15:45:27.843Z,96383.50
2022-12-20T15:48:00.707Z,96389.56
2022-12-20T15:50:33.486Z,96389.06
2022-12-20T15:53:06.300Z,96389.53
2022-12-20T15:55:41.104Z,96393.53
2022-12-20T15:58:13.963Z,96390.53
2022-12-20T16:00:47.585Z,96383.47
2022-12-20T16:03:22.614Z,96384.38
2022-12-20T16:05:56.367Z,96379.19
2022-12-20T16:08:29.192Z,96374.50
2022-12-20T16:11:03.551Z,96368.69
2022-12-20T16:13:36.434Z,96358.94
2022-12-20T16:16:16.805Z,96364.25
2022-12-20T16:18:49.674Z,96361.41
2022-12-20T16:21:25.039Z,96369.59
2022-12-20T16:23:57.818Z,96365.34
2022-12-20T16:26:32.095Z,96354.13
2022-12-20T16:29:05.172Z,96366.31
2022-12-20T16:31:39.898Z,96374.50
2022-12-20T16:34:14.922Z,96374.34
2022-12-20T16:36:47.873Z,96366.06
2022-12-20T16:39:21.155Z,96365.28
2022-12-20T16:41:55.933Z,96347.63
2022-12-20T16:44:28.855Z,96335.09
2022-12-20T16:47:01.696Z,96337.13
2022-12-20T16:49:34.602Z,96337.13
2022-12-20T16:52:15.285Z,96339.50
2022-12-20T16:54:48.244Z,96333.88
2022-12-20T16:57:22.520Z,96344.66
2022-12-20T16:59:55.276Z,96346.25
2022-12-20T17:02:30.592Z,96356.56
2022-12-20T17:05:03.606Z,96352.66
2022-12-20T17:07:41.338Z,96351.56
2022-12-20T17:10:14.621Z,96362.19
2022-12-20T17:12:49.140Z,96365.94
2022-12-20T17:15:25.742Z,96352.34
2022-12-20T17:17:59.155Z,96364.88
2022-12-20T17:20:36.663Z,96372.56
2022-12-20T17:26:06.641Z,96372.72
2022-12-20T17:28:40.990Z,96367.88
2022-12-20T17:31:22.096Z,96369.13
2022-12-20T17:33:55.359Z,96353.78
2022-12-20T17:36:33.072Z,96351.91
2022-12-20T17:39:12.099Z,96353.47
2022-12-20T17:41:46.145Z,96355.81
2022-12-20T17:44:22.285Z,96340.94
2022-12-20T17:46:55.853Z,96338.28
2022-12-20T17:49:28.754Z,96331.72
2022-12-20T17:52:01.589Z,96318.88
2022-12-20T17:54:40.117Z,96333.75
2022-12-20T17:57:15.359Z,96328.13
2022-12-20T17:59:49.854Z,96327.81
2022-12-20T18:02:25.394Z,96316.09
2022-12-20T18:04:58.523Z,96324.84
2022-12-20T18:07:31.297Z,96326.72
2022-12-20T18:10:04.289Z,96323.28
2022-12-20T18:12:37.744Z,96325.31
2022-12-20T18:15:13.386Z,96318.88
2022-12-20T18:17:46.205Z,96321.56
2022-12-20T18:20:19.105Z,96313.25
2022-12-20T18:22:52.006Z,96319.84
2022-12-20T18:25:24.770Z,96321.44
2022-12-20T18:27:57.589Z,96317.69
2022-12-20T18:30:31.818Z,96317.69
2022-12-20T18:33:04.741Z,96323.78
2022-12-20T18:35:37.546Z,96325.31
2022-12-20T18:38:10.446Z,96326.44
2022-12-20T18:40:45.349Z,96334.44
2022-12-20T18:43:18.147Z,96332.06
2022-12-20T18:45:52.416Z,96327.53
2022-12-20T18:48:25.807Z,96325.47
2022-12-20T18:51:04.183Z,96325.97
2022-12-20T18:53:39.387Z,96330.03
2022-12-20T18:56:15.163Z,96320.47
2022-12-20T18:58:49.304Z,96321.56
2022-12-20T19:01:27.026Z,96320.47
2022-12-20T19:04:02.671Z,96312.31
2022-12-20T19:06:36.411Z,96307.78
2022-12-20T19:09:11.685Z,96314.22
2022-12-20T19:11:44.610Z,96317.16
2022-12-20T19:14:17.437Z,96317.47
2022-12-20T19:16:52.151Z,96319.34
2022-12-20T19:19:25.016Z,96329.50
2022-12-20T19:21:57.776Z,96328.41
2022-12-20T19:24:30.542Z,96330.28
2022-12-20T19:27:04.577Z,96320.75
2022-12-20T19:29:37.410Z,96320.28
2022-12-20T19:32:11.701Z,96314.19
2022-12-20T19:34:44.452Z,96332.03
2022-12-20T19:37:18.272Z,96331.53
2022-12-20T19:39:51.103Z,96333.72
2022-12-20T19:42:25.135Z,96323.84
2022-12-20T19:44:58.325Z,96318.38
2022-12-20T19:47:33.694Z,96317.91
2022-12-20T19:50:09.248Z,96316.63
2022-12-20T19:52:42.024Z,96306.94
2022-12-20T19:55:15.018Z,96301.13
2022-12-20T19:57:47.851Z,96309.72
2022-12-20T20:00:21.408Z,96311.88
2022-12-20T20:02:55.872Z,96299.81
2022-12-20T20:05:28.748Z,96304.66
2022-12-20T20:08:01.612Z,96291.97
2022-12-20T20:10:34.453Z,96300.25
2022-12-20T20:13:07.351Z,96298.19
2022-12-20T20:15:40.352Z,96292.09
2022-12-20T20:18:14.747Z,96297.41
2022-12-20T20:20:47.610Z,96295.81
2022-12-20T20:23:20.913Z,96286.59
2022-12-20T20:25:56.841Z,96300.69
2022-12-20T20:28:33.253Z,96299.13
2022-12-20T20:31:10.214Z,96297.25
2022-12-20T20:33:44.927Z,96308.66
2022-12-20T20:36:19.898Z,96308.97
2022-12-20T20:38:53.281Z,96314.00
2022-12-20T20:41:26.377Z,96315.06
2022-12-20T20:43:59.490Z,96321.66
2022-12-20T20:46:32.432Z,96326.97
2022-12-20T20:49:06.946Z,96328.53
2022-12-20T20:51:40.083Z,96327.75
2022-12-20T20:54:13.231Z,96329.00
2022-12-20T20:56:46.089Z,96332.94
2022-12-20T20:59:19.066Z,96333.44
2022-12-20T21:01:52.116Z,96337.66
2022-12-20T21:04:26.427Z,96319.81
2022-12-20T21:06:59.390Z,96326.72
2022-12-20T21:09:32.651Z,96325.63
2022-12-20T21:12:05.840Z,96324.53
2022-12-20T21:15:19.975Z,96316.25
2022-12-20T21:17:32.365Z,96325.81
2022-12-20T21:20:08.195Z,96326.31
2022-12-20T21:22:41.131Z,96330.06
2022-12-20T21:25:13.918Z,96332.22
2022-12-20T21:27:46.991Z,96333.81
2022-12-20T21:30:19.900Z,96343.97
2022-12-20T21:32:52.791Z,96333.91
2022-12-20T21:35:27.148Z,96337.38
2022-12-20T21:38:01.839Z,96340.13
2022-12-20T21:40:35.154Z,96335.91
2022-12-20T21:43:08.134Z,96332.16
2022-12-20T21:45:40.873Z,96327.44
2022-12-20T21:48:13.735Z,96330.09
2022-12-20T21:50:48.223Z,96326.34
2022-12-20T21:53:21.053Z,96321.81
2022-12-20T21:55:55.702Z,96325.25
2022-12-20T21:58:30.640Z,96325.56
2022-12-20T22:01:05.372Z,96316.00
2022-12-20T22:03:38.763Z,96326.66
2022-12-20T22:06:13.665Z,96324.31
2022-12-20T22:08:46.536Z,96328.06
2022-12-20T22:11:19.892Z,96333.19
2022-12-20T22:13:55.675Z,96335.06
2022-12-20T22:16:32.035Z,96331.94
2022-12-20T22:19:05.232Z,96330.06
2022-12-20T22:21:39.511Z,96332.41
2022-12-20T22:24:12.290Z,96325.81
2022-12-20T22:26:45.157Z,96331.94
2022-12-20T22:29:18.014Z,96322.09
2022-12-20T22:31:52.585Z,96320.50
2022-12-20T22:34:25.778Z,96323.50
2022-12-20T22:36:59.974Z,96320.50
2022-12-20T22:39:32.903Z,96329.59
2022-12-20T22:42:05.970Z,96316.31
2022-12-20T22:44:38.864Z,96314.72
2022-12-20T22:47:12.235Z,96313.94
2022-12-20T22:49:45.012Z,96316.31
2022-12-20T22:52:21.010Z,96313.66
2022-12-20T22:54:53.818Z,96313.66
2022-12-20T22:57:27.692Z,96305.34
2022-12-20T23:00:00.466Z,96297.06
2022-12-20T23:02:33.602Z,96304.75
2022-12-20T23:05:07.095Z,96298.34
2022-12-20T23:07:41.359Z,96304.91
2022-12-20T23:10:34.443Z,96310.25
2022-12-20T23:13:24.485Z,96303.50
2022-12-20T23:15:57.359Z,96306.66
2022-12-20T23:18:30.230Z,96320.13
2022-12-20T23:21:20.437Z,96317.66
2022-12-20T23:23:56.366Z,96323.47
2022-12-20T23:26:29.346Z,96322.53
2022-12-20T23:29:04.053Z,96331.00
2022-12-20T23:31:37.202Z,96319.16
2022-12-20T23:34:10.095Z,96315.84
2022-12-20T23:36:42.911Z,96312.59
2022-12-20T23:39:17.363Z,96314.78
2022-12-20T23:41:50.220Z,96311.22
2022-12-20T23:44:23.249Z,96320.31
2022-12-20T23:46:58.042Z,96313.91
2022-12-20T23:49:30.880Z,96312.50
2022-12-20T23:52:03.711Z,96306.91
2022-12-20T23:54:37.895Z,96290.63
2022-12-20T23:57:12.255Z,96296.88
2022-12-20T23:59:45.120Z,96303.63
